Time;durP1;ratioP1;P1;durP2;ratioP2;P2;SDS_P1;SDS_P2;PMS_P1;PMS_P2;Temp;Humidity;BMP_temperature;BMP_pressure;BME280_temperature;BME280_humidity;BME280_pressure;Samples;Min_cycle;Max_cycle;Signal;HPM_P1;HPM_P2
2024/04/08 00:01:27;;;;;;;8.70;6.10;;;;;;;11.83;76.80;100425.48;108546;1254;62171;-80
2024/04/08 00:03:55;;;;;;;9.50;6.60;;;;;;;11.82;76.85;100422.30;107102;1253;72551;-80
2024/04/08 00:06:22;;;;;;;8.60;6.30;;;;;;;11.78;76.68;100418.27;106557;1256;69217;-79
2024/04/08 00:08:49;;;;;;;9.70;5.90;;;;;;;11.77;76.55;100421.38;106698;1253;73334;-80
2024/04/08 00:11:17;;;;;;;9.20;5.70;;;;;;;11.75;76.64;100413.95;106987;1254;60479;-78
2024/04/08 00:13:44;;;;;;;7.00;5.30;;;;;;;11.79;76.55;100409.90;107046;1259;60432;-79
2024/04/08 00:16:11;;;;;;;7.30;5.60;;;;;;;11.84;76.40;100410.89;106001;1258;74886;-77
2024/04/08 00:18:39;;;;;;;7.90;5.60;;;;;;;11.82;76.28;100406.83;105877;1259;71231;-79
2024/04/08 00:21:07;;;;;;;7.60;5.40;;;;;;;11.78;76.38;100405.23;105895;1259;72509;-79
2024/04/08 00:23:34;;;;;;;8.50;5.30;;;;;;;11.76;76.43;100408.15;105872;1254;61020;-77
2024/04/08 00:26:05;;;;;;;8.20;5.10;;;;;;;11.74;76.41;100411.18;105916;1259;60357;-78
2024/04/08 00:28:37;;;;;;;9.60;5.20;;;;;;;11.79;76.16;100407.60;105836;1259;74079;-77
2024/04/08 00:31:10;;;;;;;7.80;5.00;;;;;;;11.86;76.00;100411.07;106176;1254;68787;-77
2024/04/08 00:33:38;;;;;;;7.30;4.60;;;;;;;11.85;75.88;100412.27;106109;1257;72486;-78
2024/04/08 00:36:05;;;;;;;8.20;5.60;;;;;;;11.83;75.82;100410.42;106624;1254;61377;-78
2024/04/08 00:38:33;;;;;;;8.30;5.40;;;;;;;11.82;75.79;100415.88;108606;1253;59096;-77
2024/04/08 00:41:03;;;;;;;7.90;5.90;;;;;;;11.82;75.81;100415.71;109166;1254;72404;-78
2024/04/08 00:43:30;;;;;;;8.90;5.20;;;;;;;11.82;75.82;100416.91;106461;1254;69394;-79
2024/04/08 00:45:57;;;;;;;8.80;5.20;;;;;;;11.91;75.71;100414.94;106147;1254;71586;-78
2024/04/08 00:48:25;;;;;;;7.50;5.40;;;;;;;11.98;75.54;100410.31;106446;1257;60480;-80
2024/04/08 00:50:53;;;;;;;11.30;6.60;;;;;;;11.98;75.55;100407.48;106637;1253;60610;-79
2024/04/08 00:53:22;;;;;;;6.90;5.20;;;;;;;11.97;75.62;100404.31;106508;1254;73884;-77
2024/04/08 00:55:51;;;;;;;8.50;5.90;;;;;;;11.97;75.61;100408.59;107128;1254;68794;-78
2024/04/08 00:58:18;;;;;;;9.30;5.30;;;;;;;11.97;75.73;100407.90;106250;1257;70913;-79
2024/04/08 01:00:45;;;;;;;7.90;5.50;;;;;;;11.96;75.66;100406.04;106508;1260;60591;-78
2024/04/08 01:03:12;;;;;;;7.00;5.20;;;;;;;12.03;75.60;100403.21;107178;1254;60421;-78
2024/04/08 01:05:40;;;;;;;9.80;5.80;;;;;;;12.08;75.45;100404.45;106523;1254;73761;-77
2024/04/08 01:08:07;;;;;;;8.10;5.70;;;;;;;12.09;75.44;100405.85;106360;1254;70156;-75
2024/04/08 01:10:35;;;;;;;7.30;6.00;;;;;;;12.07;75.45;100407.08;106270;1257;71407;-77
2024/04/08 01:13:02;;;;;;;14.20;6.70;;;;;;;12.05;75.40;100406.40;106320;1254;60412;-77
2024/04/08 01:15:29;;;;;;;9.30;6.90;;;;;;;12.03;75.44;100407.00;106398;1254;60530;-75
2024/04/08 01:17:57;;;;;;;8.10;6.40;;;;;;;12.01;75.37;100405.55;106091;1254;73967;-80
2024/04/08 01:20:24;;;;;;;8.90;6.50;;;;;;;12.06;75.28;100407.52;106052;1253;69977;-80
2024/04/08 01:22:53;;;;;;;9.20;6.60;;;;;;;12.11;75.19;100402.55;105886;1259;71449;-79
2024/04/08 01:25:21;;;;;;;9.40;6.60;;;;;;;12.09;75.19;100404.08;106060;1258;60412;-78
2024/04/08 01:27:48;;;;;;;8.50;7.10;;;;;;;12.05;75.46;100403.60;105906;1255;60386;-79
2024/04/08 01:30:22;;;;;;;10.80;7.60;;;;;;;12.02;75.48;100406.56;106137;1254;73810;-80
2024/04/08 01:32:49;;;;;;;11.80;7.60;;;;;;;11.99;75.58;100406.69;106811;1254;70627;-80
2024/04/08 01:35:16;;;;;;;11.50;7.80;;;;;;;11.97;75.71;100401.76;109102;1254;71279;-78
2024/04/08 01:37:44;;;;;;;14.10;8.40;;;;;;;12.05;75.63;100403.81;109070;1253;60354;-78
2024/04/08 01:40:11;;;;;;;12.20;8.10;;;;;;;12.10;75.59;100401.96;105960;1254;60600;-79
2024/04/08 01:42:38;;;;;;;10.30;8.40;;;;;;;12.10;75.63;100409.45;105752;1262;72684;-80
2024/04/08 01:45:07;;;;;;;10.40;7.70;;;;;;;12.08;75.57;100411.20;105887;1259;69052;-80
2024/04/08 01:47:35;;;;;;;13.00;8.50;;;;;;;12.08;75.60;100415.54;105864;1259;71392;-79
2024/04/08 01:50:02;;;;;;;14.70;8.70;;;;;;;12.06;75.54;100411.08;106350;1254;60509;-78
2024/04/08 01:52:29;;;;;;;10.70;7.40;;;;;;;12.05;75.58;100409.83;107311;1254;60356;-78
2024/04/08 01:54:57;;;;;;;11.20;7.10;;;;;;;12.11;75.41;100407.89;107400;1254;74011;-79
2024/04/08 01:57:25;;;;;;;9.40;7.20;;;;;;;12.15;75.32;100403.35;105806;1257;70085;-80
2024/04/08 01:59:52;;;;;;;9.90;7.50;;;;;;;12.13;75.34;100403.96;105849;1254;71361;-76
2024/04/08 02:02:19;;;;;;;9.20;7.60;;;;;;;12.10;75.45;100407.66;105766;1262;60467;-81
2024/04/08 02:04:46;;;;;;;15.60;8.80;;;;;;;12.07;75.61;100412.83;105857;1259;62313;-77
2024/04/08 02:07:13;;;;;;;9.70;7.90;;;;;;;12.03;75.78;100411.98;105802;1254;73801;-79
2024/04/08 02:09:41;;;;;;;12.30;8.50;;;;;;;12.03;75.66;100409.06;105970;1255;70597;-79
2024/04/08 02:12:08;;;;;;;12.50;8.50;;;;;;;12.12;75.45;100406.73;106010;1253;72840;-79
2024/04/08 02:14:35;;;;;;;10.60;8.30;;;;;;;12.13;75.28;100404.33;105818;1259;60463;-79
2024/04/08 02:17:03;;;;;;;17.00;9.00;;;;;;;12.11;75.28;100408.08;106071;1254;60357;-78
2024/04/08 02:19:30;;;;;;;11.30;9.00;;;;;;;12.08;75.34;100408.92;106893;1254;72556;-79
2024/04/08 02:21:57;;;;;;;14.20;7.90;;;;;;;12.05;75.21;100407.80;106860;1254;70143;-79
2024/04/08 02:24:25;;;;;;;8.60;7.20;;;;;;;12.04;75.02;100405.30;106895;1257;73284;-80
2024/04/08 02:26:52;;;;;;;12.50;7.70;;;;;;;12.12;74.70;100405.00;105725;1259;60418;-81
2024/04/08 02:29:19;;;;;;;10.40;7.60;;;;;;;12.17;74.38;100400.88;107178;1254;60373;-79
2024/04/08 02:31:46;;;;;;;15.10;7.60;;;;;;;12.15;74.17;100404.44;109064;1254;71863;-78
2024/04/08 02:34:14;;;;;;;12.90;7.30;;;;;;;12.13;74.07;100407.33;107931;1253;67826;-77
2024/04/08 02:36:41;;;;;;;9.20;7.60;;;;;;;12.11;73.97;100408.12;106320;1254;74890;-79
2024/04/08 02:39:08;;;;;;;12.90;8.10;;;;;;;12.08;73.85;100410.02;106413;1257;60495;-79
2024/04/08 02:41:35;;;;;;;11.00;8.10;;;;;;;12.04;73.88;100408.34;106147;1254;60787;-80
2024/04/08 02:44:03;;;;;;;9.50;6.80;;;;;;;12.10;73.76;100413.75;106027;1259;72620;-79
2024/04/08 02:46:30;;;;;;;10.10;7.10;;;;;;;12.12;73.55;100411.21;105938;1254;71016;-78
2024/04/08 02:48:57;;;;;;;9.70;6.60;;;;;;;12.08;73.51;100411.73;106226;1254;72672;-78
2024/04/08 02:51:25;;;;;;;10.20;6.80;;;;;;;12.03;73.53;100413.92;106301;1256;60507;-79
2024/04/08 02:53:52;;;;;;;8.80;6.20;;;;;;;12.00;73.50;100421.84;106171;1254;60309;-79
2024/04/08 02:56:20;;;;;;;8.80;6.80;;;;;;;11.96;73.36;100421.72;106776;1254;72599;-78
2024/04/08 02:58:47;;;;;;;8.60;5.80;;;;;;;11.94;73.14;100421.44;106655;1256;70072;-79
2024/04/08 03:01:15;;;;;;;8.70;5.70;;;;;;;12.01;72.96;100418.01;106448;1254;71136;-79
2024/04/08 03:03:42;;;;;;;9.40;5.90;;;;;;;12.05;72.78;100416.39;105988;1257;60455;-80
2024/04/08 03:06:10;;;;;;;9.70;5.90;;;;;;;12.03;72.89;100416.42;107461;1254;60332;-78
2024/04/08 03:08:38;;;;;;;7.50;5.90;;;;;;;12.00;72.76;100415.25;107017;1254;72503;-80
2024/04/08 03:11:06;;;;;;;8.60;5.60;;;;;;;11.98;72.69;100413.20;105960;1261;68859;-80
2024/04/08 03:13:34;;;;;;;9.70;5.90;;;;;;;11.95;72.65;100412.55;105781;1254;71518;-80
2024/04/08 03:16:02;;;;;;;8.70;4.80;;;;;;;11.93;72.58;100412.48;105726;1262;60438;-78
2024/04/08 03:18:29;;;;;;;8.00;5.00;;;;;;;11.91;72.43;100413.91;105689;1254;60418;-77
2024/04/08 03:21:01;;;;;;;9.30;5.10;;;;;;;11.98;72.39;100416.58;105902;1254;72625;-78
2024/04/08 03:23:28;;;;;;;6.60;5.20;;;;;;;12.00;72.29;100417.01;105968;1254;70269;-79
2024/04/08 03:25:59;;;;;;;8.00;5.00;;;;;;;11.99;72.31;100419.47;108650;1259;71246;-77
2024/04/08 03:28:28;;;;;;;7.00;4.30;;;;;;;11.98;72.10;100421.33;108631;1254;59128;-76
2024/04/08 03:30:56;;;;;;;6.90;4.90;;;;;;;11.98;71.93;100421.46;106812;1256;60709;-80
2024/04/08 03:33:25;;;;;;;6.50;4.50;;;;;;;11.98;71.81;100421.98;106777;1254;73886;-77
2024/04/08 03:35:52;;;;;;;7.80;4.50;;;;;;;11.98;71.85;100426.42;107279;1259;68756;-79
2024/04/08 03:38:19;;;;;;;6.70;4.50;;;;;;;11.99;71.83;100421.73;105757;1255;72537;-78
2024/04/08 03:40:57;;;;;;;5.90;4.40;;;;;;;12.07;71.57;100418.44;105928;1254;60384;-78
2024/04/08 03:43:24;;;;;;;7.90;3.60;;;;;;;12.12;71.35;100419.64;105821;1259;61311;-79
2024/04/08 03:45:51;;;;;;;5.40;3.70;;;;;;;12.14;71.24;100417.55;105959;1257;74603;-78
2024/04/08 03:48:22;;;;;;;7.20;3.70;;;;;;;12.14;71.14;100417.33;105962;1254;69631;-79
2024/04/08 03:50:49;;;;;;;6.80;3.50;;;;;;;12.15;71.00;100420.09;105988;1259;72174;-80
2024/04/08 03:53:17;;;;;;;6.20;4.30;;;;;;;12.15;71.16;100423.13;105720;1255;61339;-80
2024/04/08 03:55:45;;;;;;;6.00;3.40;;;;;;;12.14;71.06;100425.52;105864;1254;61215;-79
2024/04/08 03:58:12;;;;;;;6.00;3.80;;;;;;;12.12;71.09;100422.17;105879;1255;74419;-79
2024/04/08 04:00:39;;;;;;;6.90;4.00;;;;;;;12.11;71.15;100417.27;105963;1258;69935;-79
2024/04/08 04:03:07;;;;;;;6.50;4.10;;;;;;;12.19;71.02;100415.38;105789;1255;71736;-78
2024/04/08 04:05:37;;;;;;;5.40;3.80;;;;;;;12.23;70.72;100418.02;106041;1254;61259;-80
2024/04/08 04:08:05;;;;;;;6.80;3.80;;;;;;;12.23;70.93;100418.61;105831;1259;61324;-79
2024/04/08 04:10:32;;;;;;;6.80;3.90;;;;;;;12.20;70.76;100416.35;105941;1257;74738;-79
2024/04/08 04:12:59;;;;;;;6.10;4.50;;;;;;;12.21;70.87;100423.34;105738;1260;69084;-78
2024/04/08 04:15:26;;;;;;;9.00;4.80;;;;;;;12.20;70.81;100423.44;105904;1257;72703;-81
2024/04/08 04:17:54;;;;;;;11.50;5.60;;;;;;;12.18;70.90;100425.05;105890;1254;61428;-79
2024/04/08 04:20:23;;;;;;;6.80;5.20;;;;;;;12.18;71.14;100430.48;107200;1254;61231;-79
2024/04/08 04:22:50;;;;;;;9.10;5.00;;;;;;;12.25;70.89;100436.98;108932;1254;73703;-80
2024/04/08 04:25:17;;;;;;;8.30;5.20;;;;;;;12.32;70.78;100435.29;107636;1259;71070;-79
2024/04/08 04:27:44;;;;;;;8.00;5.20;;;;;;;12.33;70.82;100439.81;107119;1259;71286;-79
2024/04/08 04:30:11;;;;;;;7.70;5.30;;;;;;;12.34;70.68;100439.05;106780;1259;61436;-78
2024/04/08 04:32:40;;;;;;;8.70;5.30;;;;;;;12.35;70.62;100444.79;106025;1254;61279;-80
2024/04/08 04:35:07;;;;;;;8.90;5.30;;;;;;;12.34;70.65;100443.30;107054;1254;75676;-78
2024/04/08 04:37:35;;;;;;;7.00;4.90;;;;;;;12.34;70.68;100443.30;107140;1254;69049;-79
2024/04/08 04:40:02;;;;;;;11.40;5.40;;;;;;;12.34;70.48;100446.32;108136;1254;71481;-78
2024/04/08 04:42:29;;;;;;;8.90;5.00;;;;;;;12.34;70.41;100442.72;106027;1257;61257;-81
2024/04/08 04:44:56;;;;;;;7.50;4.30;;;;;;;12.43;70.34;100441.71;105958;1254;61206;-81
2024/04/08 04:47:24;;;;;;;7.70;5.00;;;;;;;12.51;70.08;100439.23;107363;1256;74726;-79
2024/04/08 04:49:51;;;;;;;7.50;4.50;;;;;;;12.53;69.99;100442.33;107012;1256;68719;-80
2024/04/08 04:52:19;;;;;;;6.50;5.00;;;;;;;12.53;69.99;100448.36;105958;1256;71823;-80
2024/04/08 04:54:46;;;;;;;8.50;5.00;;;;;;;12.54;70.02;100451.34;106003;1256;61404;-82
2024/04/08 04:57:13;;;;;;;10.10;5.20;;;;;;;12.55;70.13;100449.66;105957;1256;61359;-79
2024/04/08 04:59:41;;;;;;;9.70;5.20;;;;;;;12.55;70.15;100451.92;106052;1257;73343;-81
2024/04/08 05:02:08;;;;;;;11.80;6.00;;;;;;;12.56;69.98;100448.59;105949;1254;70307;-79
2024/04/08 05:04:39;;;;;;;9.90;6.20;;;;;;;12.57;70.04;100451.34;106047;1254;72634;-80
2024/04/08 05:07:07;;;;;;;13.90;6.50;;;;;;;12.56;70.01;100453.20;106006;1256;61375;-80
2024/04/08 05:09:34;;;;;;;8.50;5.10;;;;;;;12.58;70.02;100456.80;106230;1255;61403;-80
2024/04/08 05:12:01;;;;;;;9.40;6.10;;;;;;;12.67;69.82;100455.48;106733;1254;75127;-80
2024/04/08 05:14:29;;;;;;;11.30;5.20;;;;;;;12.74;69.89;100458.80;107796;1254;69079;-79
2024/04/08 05:16:56;;;;;;;7.70;5.50;;;;;;;12.75;69.92;100458.25;109011;1254;70722;-79
2024/04/08 05:19:24;;;;;;;9.50;5.10;;;;;;;12.78;69.95;100456.53;109107;1254;61201;-81
2024/04/08 05:21:51;;;;;;;9.50;5.80;;;;;;;12.82;69.61;100454.07;106697;1257;61352;-80
2024/04/08 05:24:19;;;;;;;11.00;5.60;;;;;;;12.84;69.70;100449.08;106227;1253;74769;-82
2024/04/08 05:26:46;;;;;;;9.50;5.40;;;;;;;12.86;69.50;100450.73;106151;1256;70402;-81
2024/04/08 05:29:13;;;;;;;10.70;6.30;;;;;;;12.88;69.46;100446.40;106323;1254;71421;-80
2024/04/08 05:31:40;;;;;;;10.70;6.10;;;;;;;12.89;69.29;100445.23;106355;1259;61210;-81
2024/04/08 05:34:09;;;;;;;9.00;5.80;;;;;;;12.90;69.33;100443.17;106242;1260;64078;-80
2024/04/08 05:36:36;;;;;;;12.10;6.30;;;;;;;12.92;69.41;100445.98;106167;1254;74769;-80
2024/04/08 05:39:03;;;;;;;11.00;6.00;;;;;;;12.95;69.36;100445.35;106389;1255;68875;-82
2024/04/08 05:41:30;;;;;;;10.00;5.50;;;;;;;13.06;69.24;100443.77;106989;1256;71233;-80
2024/04/08 05:43:58;;;;;;;9.40;5.80;;;;;;;13.19;69.06;100440.10;107172;1254;63935;-78
2024/04/08 05:46:25;;;;;;;10.60;6.50;;;;;;;13.27;68.92;100445.23;107071;1254;61420;-82
2024/04/08 05:48:52;;;;;;;14.40;6.70;;;;;;;13.35;68.99;100440.98;106161;1257;73328;-80
2024/04/08 05:51:22;;;;;;;13.80;7.30;;;;;;;13.44;68.75;100441.14;106483;1254;69394;-80
2024/04/08 05:53:49;;;;;;;14.50;7.20;;;;;;;13.50;68.42;100441.99;106183;1254;71278;-78
2024/04/08 05:56:17;;;;;;;12.20;6.70;;;;;;;13.56;68.20;100441.15;106453;1254;61269;-79
2024/04/08 05:58:44;;;;;;;12.00;7.20;;;;;;;13.62;67.95;100441.42;107149;1257;62851;-81
2024/04/08 06:01:12;;;;;;;13.00;7.00;;;;;;;13.65;67.57;100446.96;106776;1254;72439;-82
2024/04/08 06:03:39;;;;;;;12.50;7.10;;;;;;;13.65;67.53;100447.64;106417;1257;70650;-83
2024/04/08 06:06:06;;;;;;;10.20;7.50;;;;;;;13.67;67.63;100448.45;106473;1259;70145;-82
2024/04/08 06:08:34;;;;;;;12.60;7.80;;;;;;;13.74;67.49;100454.11;106642;1257;61269;-79
2024/04/08 06:11:04;;;;;;;14.30;8.50;;;;;;;13.81;67.44;100451.06;107394;1254;61255;-81
2024/04/08 06:13:32;;;;;;;18.30;8.70;;;;;;;13.90;67.43;100453.96;108951;1254;75582;-80
2024/04/08 06:16:00;;;;;;;16.60;8.40;;;;;;;13.98;67.04;100454.27;108553;1257;69208;-81
2024/04/08 06:18:27;;;;;;;16.10;8.60;;;;;;;14.09;67.05;100456.80;106618;1257;75012;-82
2024/04/08 06:20:55;;;;;;;16.00;8.70;;;;;;;14.16;66.57;100452.05;106824;1256;61368;-82
2024/04/08 06:23:23;;;;;;;16.30;9.30;;;;;;;14.27;66.51;100458.35;108240;1255;61267;-82
2024/04/08 06:26:00;;;;;;;10.90;7.70;;;;;;;14.37;66.18;100452.77;108006;1254;75414;-82
2024/04/08 06:28:27;;;;;;;18.20;8.30;;;;;;;14.46;65.79;100449.60;106937;1259;71190;-81
2024/04/08 06:30:55;;;;;;;13.00;8.20;;;;;;;14.53;65.75;100454.06;106798;1254;72759;-83
2024/04/08 06:33:22;;;;;;;14.10;8.60;;;;;;;14.66;65.87;100457.31;106650;1254;61256;-82
2024/04/08 06:35:52;;;;;;;13.70;8.50;;;;;;;14.78;65.25;100460.23;106676;1254;62165;-79
2024/04/08 06:38:20;;;;;;;13.60;8.30;;;;;;;14.88;65.14;100463.45;106395;1260;75567;-80
2024/04/08 06:40:48;;;;;;;16.60;9.00;;;;;;;14.98;64.86;100463.73;106375;1254;70975;-81
2024/04/08 06:43:15;;;;;;;18.40;8.90;;;;;;;15.08;64.60;100466.51;106411;1255;71179;-86
2024/04/08 06:45:43;;;;;;;13.10;9.10;;;;;;;15.21;64.09;100465.61;107336;1257;61327;-82
2024/04/08 06:48:10;;;;;;;13.30;8.20;;;;;;;15.28;63.48;100464.20;108123;1254;61240;-85
2024/04/08 06:50:38;;;;;;;13.50;7.90;;;;;;;15.37;63.52;100464.02;107949;1259;76561;-81
2024/04/08 06:53:05;;;;;;;13.50;9.00;;;;;;;15.47;63.57;100463.69;106848;1259;72312;-80
2024/04/08 06:55:33;;;;;;;17.10;8.80;;;;;;;15.59;63.24;100460.02;106706;1254;73211;-80
2024/04/08 06:58:00;;;;;;;15.60;8.90;;;;;;;15.69;62.80;100455.92;107323;1255;61007;-80
2024/04/08 07:00:27;;;;;;;12.80;8.10;;;;;;;15.80;62.51;100455.86;106158;1259;62232;-81
2024/04/08 07:02:55;;;;;;;15.20;8.50;;;;;;;15.93;62.42;100455.80;106258;1257;74783;-81
2024/04/08 07:05:22;;;;;;;14.00;8.00;;;;;;;16.06;62.13;100459.52;106118;1257;70296;-80
2024/04/08 07:07:50;;;;;;;11.90;7.60;;;;;;;16.17;61.19;100456.11;107328;1254;74613;-80
2024/04/08 07:10:17;;;;;;;15.40;8.30;;;;;;;16.26;60.72;100459.80;108969;1255;60958;-80
2024/04/08 07:12:45;;;;;;;14.50;7.60;;;;;;;16.35;60.48;100451.57;108204;1257;61355;-80
2024/04/08 07:15:13;;;;;;;19.40;7.90;;;;;;;16.43;60.29;100445.86;106969;1257;75723;-79
2024/04/08 07:17:40;;;;;;;10.40;6.60;;;;;;;16.54;60.07;100447.98;106580;1260;71257;-79
2024/04/08 07:20:09;;;;;;;13.30;7.00;;;;;;;16.63;59.75;100446.69;106392;1259;72221;-78
2024/04/08 07:22:38;;;;;;;14.10;6.20;;;;;;;16.73;59.62;100450.91;106726;1259;61192;-79
2024/04/08 07:25:06;;;;;;;11.60;5.90;;;;;;;16.84;59.04;100444.44;107091;1255;60379;-78
2024/04/08 07:27:35;;;;;;;9.30;5.80;;;;;;;16.98;58.76;100448.38;107371;1255;73762;-79
2024/04/08 07:30:03;;;;;;;8.90;5.40;;;;;;;17.11;58.28;100443.20;108625;1254;69746;-85
2024/04/08 07:32:32;;;;;;;10.60;4.90;;;;;;;17.23;57.54;100446.32;108348;1256;72468;-82
2024/04/08 07:35:00;;;;;;;8.10;4.40;;;;;;;17.33;56.90;100448.11;106743;1257;61106;-83
2024/04/08 07:37:27;;;;;;;10.80;5.30;;;;;;;17.43;56.86;100446.64;106931;1257;61112;-79
2024/04/08 07:39:54;;;;;;;9.40;4.40;;;;;;;17.53;56.11;100445.79;106598;1257;75186;-77
2024/04/08 07:42:22;;;;;;;9.90;5.70;;;;;;;17.61;56.09;100443.98;106996;1257;70452;-78
2024/04/08 07:44:51;;;;;;;10.10;5.80;;;;;;;17.72;55.93;100439.96;107751;1258;73498;-79
2024/04/08 07:47:18;;;;;;;6.60;4.40;;;;;;;17.81;54.90;100439.97;107245;1259;61374;-81
2024/04/08 07:49:46;;;;;;;11.10;5.10;;;;;;;17.90;54.18;100440.50;105992;1256;62193;-81
2024/04/08 07:52:13;;;;;;;12.50;5.20;;;;;;;17.98;54.19;100440.00;106161;1257;74721;-80
2024/04/08 07:54:41;;;;;;;10.30;5.30;;;;;;;18.05;54.34;100438.88;106242;1257;70294;-74
2024/04/08 07:57:08;;;;;;;8.30;5.40;;;;;;;18.15;54.09;100438.67;106154;1257;75006;-77
2024/04/08 07:59:36;;;;;;;9.40;4.90;;;;;;;18.26;53.66;100439.36;106107;1257;62282;-76
2024/04/08 08:02:03;;;;;;;5.60;4.30;;;;;;;18.35;53.12;100439.06;106171;1255;61256;-76
2024/04/08 08:04:32;;;;;;;9.80;4.70;;;;;;;18.44;52.79;100434.17;106989;1254;74555;-74
2024/04/08 08:07:00;;;;;;;7.40;3.70;;;;;;;18.55;52.60;100434.91;107645;1256;70120;-75
2024/04/08 08:09:27;;;;;;;8.80;4.50;;;;;;;18.68;52.24;100434.10;106654;1257;71751;-76
2024/04/08 08:11:55;;;;;;;9.80;5.20;;;;;;;18.80;51.76;100440.60;106154;1259;61193;-76
2024/04/08 08:14:22;;;;;;;9.90;5.30;;;;;;;18.87;51.59;100440.86;106157;1257;61135;-75
2024/04/08 08:16:50;;;;;;;8.80;4.60;;;;;;;18.92;51.26;100441.83;105904;1259;74775;-75
2024/04/08 08:19:18;;;;;;;9.10;3.40;;;;;;;19.01;51.03;100442.66;106189;1256;70296;-76
2024/04/08 08:21:45;;;;;;;5.90;3.00;;;;;;;19.15;49.51;100447.09;105688;1261;73887;-74
2024/04/08 08:24:12;;;;;;;5.80;3.50;;;;;;;19.24;49.69;100437.85;105965;1257;61222;-76
2024/04/08 08:26:39;;;;;;;4.80;3.10;;;;;;;19.34;49.28;100438.17;106136;1254;61359;-76
2024/04/08 08:29:07;;;;;;;9.30;4.20;;;;;;;19.44;48.79;100438.91;105905;1259;72992;-76
2024/04/08 08:31:34;;;;;;;7.40;3.00;;;;;;;19.59;48.44;100446.64;106278;1254;72271;-77
2024/04/08 08:34:01;;;;;;;4.70;3.00;;;;;;;19.68;48.32;100436.16;106252;1254;75056;-76
2024/04/08 08:36:29;;;;;;;5.20;3.30;;;;;;;19.78;48.46;100434.14;106968;1256;61775;-78
2024/04/08 08:38:57;;;;;;;6.00;3.70;;;;;;;19.89;48.56;100432.41;106315;1255;62192;-76
2024/04/08 08:41:25;;;;;;;5.60;3.30;;;;;;;20.07;48.29;100432.34;105947;1255;74817;-76
2024/04/08 08:43:54;;;;;;;7.50;3.70;;;;;;;20.28;47.88;100427.27;105773;1257;70385;-76
2024/04/08 08:46:23;;;;;;;8.10;3.10;;;;;;;20.49;46.70;100427.98;105915;1257;72799;-76
2024/04/08 08:48:51;;;;;;;6.30;4.00;;;;;;;20.62;45.88;100429.27;105791;1256;61378;-76
2024/04/08 08:51:18;;;;;;;4.90;3.00;;;;;;;20.66;45.73;100427.20;106069;1257;61240;-77
2024/04/08 08:53:45;;;;;;;6.10;3.10;;;;;;;20.69;45.46;100429.27;105992;1256;73475;-78
2024/04/08 08:56:15;;;;;;;5.60;2.90;;;;;;;20.75;45.21;100425.64;106946;1259;69022;-78
2024/04/08 08:58:47;;;;;;;3.90;2.30;;;;;;;20.84;44.69;100428.20;107511;1254;74575;-77
2024/04/08 09:01:15;;;;;;;4.40;2.50;;;;;;;20.95;44.62;100419.55;107362;1254;61164;-76
2024/04/08 09:03:43;;;;;;;8.50;3.10;;;;;;;21.10;43.90;100414.83;108018;1254;61262;-76
2024/04/08 09:06:11;;;;;;;4.80;2.70;;;;;;;21.16;43.39;100413.36;107979;1254;73184;-79
2024/04/08 09:08:38;;;;;;;7.60;3.00;;;;;;;21.31;43.52;100412.10;107947;1255;71923;-77
2024/04/08 09:11:06;;;;;;;5.80;2.50;;;;;;;21.65;42.98;100402.25;108105;1259;72748;-77
2024/04/08 09:13:34;;;;;;;9.90;2.90;;;;;;;22.16;42.52;100405.23;107599;1256;61255;-76
2024/04/08 09:16:01;;;;;;;4.80;2.20;;;;;;;22.76;41.81;100407.30;108109;1253;59783;-75
2024/04/08 09:18:29;;;;;;;3.70;2.50;;;;;;;23.34;40.94;100394.02;108403;1254;72644;-78
2024/04/08 09:20:58;;;;;;;3.60;2.30;;;;;;;23.86;39.97;100388.33;107829;1253;71286;-77
2024/04/08 09:23:30;;;;;;;3.40;2.60;;;;;;;24.34;38.92;100391.38;107470;1254;71768;-76
2024/04/08 09:25:57;;;;;;;3.80;3.00;;;;;;;24.73;38.19;100386.76;107088;1258;61311;-74
2024/04/08 09:28:27;;;;;;;5.40;2.90;;;;;;;24.93;37.07;100394.48;107673;1253;61155;-76
2024/04/08 09:30:59;;;;;;;5.00;2.30;;;;;;;24.98;36.94;100384.55;107108;1253;76067;-76
2024/04/08 09:33:26;;;;;;;5.70;2.90;;;;;;;25.10;37.10;100377.63;106910;1254;72307;-76
2024/04/08 09:35:54;;;;;;;5.30;2.90;;;;;;;25.49;37.17;100369.17;107110;1253;71219;-77
2024/04/08 09:38:21;;;;;;;6.10;3.00;;;;;;;26.01;36.46;100369.45;107734;1257;61266;-78
2024/04/08 09:40:49;;;;;;;4.30;2.80;;;;;;;26.43;35.69;100371.67;108028;1254;61282;-79
2024/04/08 09:43:16;;;;;;;4.20;2.70;;;;;;;26.73;35.34;100364.55;107042;1254;75522;-74
2024/04/08 09:45:44;;;;;;;5.50;2.70;;;;;;;26.94;34.17;100377.85;106751;1254;73046;-76
2024/04/08 09:48:15;;;;;;;3.70;2.70;;;;;;;26.98;34.26;100368.45;108462;1254;71653;-78
2024/04/08 09:50:43;;;;;;;7.00;3.00;;;;;;;26.99;34.19;100371.83;108288;1253;61234;-77
2024/04/08 09:53:10;;;;;;;7.40;3.50;;;;;;;27.05;34.38;100369.91;108075;1257;59167;-77
2024/04/08 09:55:40;;;;;;;6.70;3.10;;;;;;;27.13;34.58;100365.12;108638;1253;75254;-78
2024/04/08 09:58:13;;;;;;;5.00;2.80;;;;;;;27.26;34.77;100360.40;108945;1254;68650;-80
2024/04/08 10:00:41;;;;;;;7.50;3.00;;;;;;;27.61;34.87;100350.60;108981;1253;71706;-83
2024/04/08 10:03:09;;;;;;;5.50;3.20;;;;;;;28.12;34.47;100350.29;109189;1253;59145;-84
2024/04/08 10:05:37;;;;;;;5.80;3.40;;;;;;;28.60;34.06;100349.71;109343;1253;61083;-83
2024/04/08 10:08:05;;;;;;;5.30;3.60;;;;;;;29.03;33.24;100348.70;109079;1256;72844;-81
2024/04/08 10:10:33;;;;;;;7.80;3.80;;;;;;;29.21;32.44;100353.17;109226;1253;71783;-80
2024/04/08 10:13:00;;;;;;;4.70;3.20;;;;;;;28.99;32.72;100345.38;109141;1253;73788;-82
2024/04/08 10:15:32;;;;;;;4.70;3.30;;;;;;;28.79;32.96;100345.34;109223;1254;60136;-80
2024/04/08 10:17:59;;;;;;;6.30;3.60;;;;;;;28.69;33.03;100341.85;109258;1254;58820;-82
2024/04/08 10:20:28;;;;;;;4.50;2.90;;;;;;;28.62;33.17;100340.49;109366;1253;75587;-82
2024/04/08 10:22:55;;;;;;;6.40;3.30;;;;;;;28.62;33.14;100337.96;109296;1253;69064;-83
2024/04/08 10:25:40;;;;;;;4.80;2.80;;;;;;;28.67;32.81;100340.38;109199;1254;74134;-83
2024/04/08 10:28:08;;;;;;;6.30;2.90;;;;;;;28.61;32.74;100330.15;109199;1254;61005;-86
2024/04/08 10:30:38;;;;;;;5.20;3.50;;;;;;;28.61;32.70;100323.64;109258;1253;61163;-86
2024/04/08 10:33:07;;;;;;;4.50;2.70;;;;;;;28.80;32.47;100318.33;109022;1259;72592;-84
2024/04/08 10:35:35;;;;;;;4.20;3.10;;;;;;;29.08;32.04;100319.92;109104;1258;68640;-83
2024/04/08 10:38:03;;;;;;;3.90;2.60;;;;;;;29.27;31.39;100315.23;109339;1253;71676;-84
2024/04/08 10:40:31;;;;;;;5.80;3.20;;;;;;;29.13;31.41;100322.98;108902;1259;59474;-84
2024/04/08 10:42:58;;;;;;;4.90;3.00;;;;;;;28.91;31.77;100314.15;108772;1259;60631;-84
2024/04/08 10:45:26;;;;;;;6.40;3.20;;;;;;;28.76;31.93;100313.91;108607;1257;73598;-83
2024/04/08 10:48:01;;;;;;;4.70;2.50;;;;;;;28.54;31.75;100313.73;108756;1253;68877;-84
2024/04/08 10:50:34;;;;;;;5.30;2.80;;;;;;;28.24;31.91;100320.27;109081;1254;73688;-84
2024/04/08 10:53:02;;;;;;;4.80;3.30;;;;;;;27.93;32.29;100311.69;108815;1253;60014;-84
2024/04/08 10:55:30;;;;;;;4.70;2.50;;;;;;;27.78;32.75;100306.52;108805;1262;58963;-83
2024/04/08 10:58:00;;;;;;;6.50;2.80;;;;;;;27.88;32.75;100299.17;108949;1253;72758;-83
2024/04/08 11:00:28;;;;;;;5.80;2.90;;;;;;;28.21;32.64;100296.84;109485;1258;69047;-85
2024/04/08 11:02:59;;;;;;;5.70;2.70;;;;;;;28.61;31.70;100297.79;109353;1254;71222;-86
2024/04/08 11:05:27;;;;;;;4.70;2.50;;;;;;;28.78;31.36;100298.70;109297;1254;61647;-85
2024/04/08 11:08:00;;;;;;;5.90;2.50;;;;;;;28.76;31.19;100298.80;109228;1260;59089;-85
2024/04/08 11:10:29;;;;;;;3.40;2.40;;;;;;;28.70;30.92;100298.33;109247;1253;75680;-86
2024/04/08 11:12:57;;;;;;;3.60;2.00;;;;;;;28.49;31.01;100294.77;109128;1254;69642;-82
2024/04/08 11:15:29;;;;;;;4.00;2.80;;;;;;;28.23;31.57;100290.11;109172;1259;71195;-84
2024/04/08 11:17:58;;;;;;;4.30;2.30;;;;;;;28.10;31.63;100288.89;109071;1253;59354;-85